Princess of Norway — MINUK03 — position and weather

sailwx.info

Track history (hours):
 
Tides and Currents Weather Stations Pressure Air Temp Water Temp Dewpoint Dewpoint Depression Visibility Wind Speed Wind Dir Waves Ship Positions

Princess of Norway (United Kingdom)

DFDS Ferries. Previous callsign LMDV.

Last reported at 2015-Dec-15 06:00 UTC. Time now 2017-Mar-30 22:51 UTC.
Position N 54°36' W 000°12'.
Warning: this ship's position is years out of date!

Barometer 1018.0 mb
Air temperature 8.8 ° C

Date/timePositionNaut miles runAvg speedWind from/ knotsBaromVisibWave heightAir tempDewpointWater temp
2015-Dec-15 06:00N 54°36' W 000°12'1818.4 1018.0 8.8
2015-Dec-15 05:00N 54°24' E 000°12'1515.2 1018.0 8.8
2015-Dec-15 04:00N 54°18' E 000°36'8316.5 1017.8 8.8
2015-Dec-14 23:00N 53°30' E 002°30'7515.0 1017.3 8.5
2015-Dec-14 18:00N 52°42' E 004°06'1616.2 1017.3 7.8
2015-Dec-14 17:00N 52°30' E 004°24'7 2.4 1017.3 7.0
2015-Dec-14 14:00N 52°30' E 004°36'0 0.0 1017.2 9.0
2015-Dec-14 10:00N 52°30' E 004°36'0 0.0 1018.9 7.8
2015-Dec-14 09:00N 52°30' E 004°36'4 3.7 1019.1 7.5
2015-Dec-14 08:00N 52°30' E 004°30'1918.9 1018.2 7.0
2015-Dec-14 07:00N 52°42' E 004°06'1918.8 1017.4 9.3
2015-Dec-14 06:00N 52°54' E 003°42'3818.8 1016.9 10.3
2015-Dec-14 04:00N 53°18' E 002°54'1918.7 1016.9 10.3
2015-Dec-14 03:00N 53°30' E 002°30'1918.6 1016.7 9.5
2015-Dec-14 02:00N 53°42' E 002°06'9716.2 1016.4 9.3
2015-Dec-13 20:00N 54°36' W 000°12'1818.4 1017.1 7.3
2015-Dec-13 19:00N 54°42' W 000°42'1818.3 1016.9 7.5
2015-Dec-13 18:00N 54°54' W 001°06'15 7.5 1016.8 7.0
2015-Dec-13 16:00N 55°00' W 001°30'0 0.0 1018.4 3.8
2015-Dec-13 15:00N 55°00' W 001°30'0 0.0 1018.7 3.8
2015-Dec-13 14:00N 55°00' W 001°30'0 0.0 1019.1 3.5
2015-Dec-13 13:00N 55°00' W 001°30'0 0.0 1019.6 3.3
2015-Dec-13 12:00N 55°00' W 001°30'0 0.0 1020.0 3.3
2015-Dec-13 11:00N 55°00' W 001°30'0 0.0 1020.3 2.8
2015-Dec-13 10:00N 55°00' W 001°30'3 3.4 1020.1 2.0
2015-Dec-13 09:00N 55°00' W 001°24'1515.0 1019.5 2.8
2015-Dec-13 08:00N 54°54' W 001°00'1212.0 1018.6 5.8
2015-Dec-13 07:00N 54°48' W 000°42'1818.3 1017.9 7.5
2015-Dec-13 06:00N 54°36' W 000°18'1515.2 1017.1 7.8
2015-Dec-13 05:00N 54°30' E 000°06'3316.6 1016.4 7.8
2015-Dec-13 03:00N 54°12' E 000°54'3718.5 1015.5 8.0
2015-Dec-13 01:00N 53°48' E 001°42'4916.5 1013.3 7.0
2015-Dec-12 22:00N 53°18' E 002°48'5914.8 1005.8 8.3
2015-Dec-12 18:00N 52°42' E 004°06'1918.9 1007.4 11.0
2015-Dec-12 17:00N 52°30' E 004°30'4 3.7 1011.8 9.8
2015-Dec-12 16:00N 52°30' E 004°36'0 0.0 1014.2 7.8
2015-Dec-12 15:00N 52°30' E 004°36'0 0.0 1015.5 7.3
2015-Dec-12 14:00N 52°30' E 004°36'0 0.0 1017.7 8.0
2015-Dec-12 12:00N 52°30' E 004°36'0 0.0 1020.2 9.0
2015-Dec-12 11:00N 52°30' E 004°36'0 0.0 1021.1 8.5
2015-Dec-12 10:00N 52°30' E 004°36'4 1.8 1021.6 8.5
2015-Dec-12 08:00N 52°30' E 004°30'1616.2 1021.5 8.5
2015-Dec-12 07:00N 52°42' E 004°12'1918.8 1020.9 8.3
2015-Dec-12 06:00N 52°54' E 003°48'1212.4 1020.4 8.5
2015-Dec-12 05:00N 53°00' E 003°30'1918.8 1019.9 8.3
2015-Dec-12 04:00N 53°12' E 003°06'1918.7 1019.6 8.0
2015-Dec-12 03:00N 53°24' E 002°42'1616.1 1019.1 8.0
2015-Dec-12 02:00N 53°36' E 002°24'5317.6 1018.5 8.0
2015-Dec-11 23:00N 53°54' E 001°00'1918.5 1017.4 7.8
2015-Dec-11 22:00N 54°06' E 000°36'1818.5 1015.7 7.5
2015-Dec-11 21:00N 54°18' E 000°12'2121.2 1015.5 7.3
2015-Dec-11 20:00N 54°30' W 000°18'1818.4 1014.4 7.3
2015-Dec-11 19:00N 54°42' W 000°42'1818.3 1013.3 7.3
2015-Dec-11 18:00N 54°54' W 001°06'1515.0 1011.8 7.8
2015-Dec-11 17:00N 55°00' W 001°30'0 0.0 1010.3 7.0
2015-Dec-11 15:00N 55°00' W 001°30'0 0.0 1010.5 6.8
2015-Dec-11 14:00N 55°00' W 001°30'0 0.0 1010.6 6.0
2015-Dec-11 12:00N 55°00' W 001°30'0 0.0 1009.9 6.5
2015-Dec-11 11:00N 55°00' W 001°30'0 0.0 1010.6 6.8
2015-Dec-11 10:00N 55°00' W 001°30'12 6.0 1011.7 5.0
2015-Dec-11 08:00N 54°54' W 001°12'1515.1 1011.4 5.8
2015-Dec-11 07:00N 54°48' W 000°48'1515.1 1011.7 6.0
2015-Dec-11 06:00N 54°42' W 000°24'1615.9 1012.0 6.3
2015-Dec-11 05:00N 54°30' W 000°06'3316.6 1012.4 6.5
2015-Dec-11 03:00N 54°12' E 000°42'1212.1 1012.2 7.8
2015-Dec-11 02:00N 54°06' E 001°00'5518.3 1011.7 8.5
2015-Dec-10 23:00N 53°36' E 002°18'6516.4 1016.5 8.0
2015-Dec-10 19:00N 52°54' E 003°42'4110.1 1018.7 10.5
2015-Dec-10 15:00N 52°30' E 004°36'0 0.0 1024.2 8.3
2015-Dec-10 14:00N 52°30' E 004°36'0 0.0 1024.7 8.3
2015-Dec-10 12:00N 52°30' E 004°36'4 1.2 1026.4 7.8
2015-Dec-10 09:00N 52°30' E 004°30'7017.4 1026.7 7.5
2015-Dec-10 05:00N 52°36' E 002°36'1919.2 1024.9 11.3
2015-Dec-10 04:00N 52°42' E 002°06'8517.0 1023.8 10.3
2015-Dec-09 23:00N 53°48' E 000°36'7117.7 1018.5 10.0
2015-Dec-09 19:00N 54°42' W 000°42'3316.5 1014.4 11.3
2015-Dec-09 17:00N 55°00' W 001°30'0 0.0 1015.4 11.3
2015-Dec-09 15:00N 55°00' W 001°30'0 0.0 1016.5 12.3
2015-Dec-09 14:00N 55°00' W 001°30'0 0.0 1017.8 11.8
2015-Dec-09 13:00N 55°00' W 001°30'0 0.0 1019.6 11.5
2015-Dec-09 12:00N 55°00' W 001°30'0 0.0 1020.0 11.3
2015-Dec-09 10:00N 55°00' W 001°30'18 9.1 1021.5 6.8
2015-Dec-09 08:00N 54°54' W 001°00'1818.3 1022.8 7.3
2015-Dec-09 07:00N 54°42' W 000°36'1818.4 1024.7 7.0
2015-Dec-09 06:00N 54°36' W 000°06'1818.4 1024.4 7.0
2015-Dec-09 05:00N 54°24' E 000°18'1515.2 1025.2 7.0
2015-Dec-09 04:00N 54°18' E 000°42'1818.5 1024.6 7.8
2015-Dec-09 03:00N 54°06' E 001°06'1212.2 1025.0 8.3
2015-Dec-09 02:00N 54°00' E 001°24'8016.0 1024.1 8.3
2015-Dec-08 21:00N 53°12' E 003°12'1918.8 1019.5 11.0
2015-Dec-08 20:00N 53°00' E 003°36'1616.2 1019.7 11.8
2015-Dec-08 19:00N 52°48' E 003°54'1212.4 1021.4 11.5
2015-Dec-08 18:00N 52°42' E 004°12'1616.2 1021.9 11.0
2015-Dec-08 17:00N 52°30' E 004°30'4 3.7 1022.5 10.0
2015-Dec-08 16:00N 52°30' E 004°36'0 0.0 1022.9 10.3
2015-Dec-08 15:00N 52°30' E 004°36'0 0.0 1022.6 10.3
2015-Dec-08 12:00N 52°30' E 004°36'0 0.0 1023.0 11.3
2015-Dec-08 11:00N 52°30' E 004°36'0 0.0 1023.7 11.0
2015-Dec-08 10:00N 52°30' E 004°36'0 0.0 1024.1 10.0
2015-Dec-08 09:00N 52°30' E 004°36'1212.5 1024.2 9.5
2015-Dec-08 08:00N 52°36' E 004°18'1616.2 1021.6 9.8
2015-Dec-08 07:00N 52°48' E 004°00'1918.8 1020.6 10.8
2015-Dec-08 06:00N 53°00' E 003°36'1615.6 1020.2 11.3
2015-Dec-08 05:00N 53°06' E 003°12'1616.1 1018.6 11.8
2015-Dec-08 04:00N 53°18' E 002°54'1918.7 1019.4 11.5
2015-Dec-08 03:00N 53°30' E 002°30'1918.6 1019.0 11.3
2015-Dec-08 02:00N 53°42' E 002°06'4916.2 1018.3 11.0
2015-Dec-07 23:00N 54°06' E 000°54'3015.2 1017.8 10.5
2015-Dec-07 21:00N 54°24' E 000°12'1818.4 1016.8 10.8
2015-Dec-07 20:00N 54°36' W 000°12'1515.1 1017.5 10.8
2015-Dec-07 19:00N 54°42' W 000°36'1818.3 1015.9 11.3
2015-Dec-07 18:00N 54°54' W 001°00'1515.0 1015.6 12.3
2015-Dec-07 17:00N 55°00' W 001°24'3 0.9 1016.3 12.3
2015-Dec-07 13:00N 55°00' W 001°30'0 0.0 1018.7 10.5
2015-Dec-07 12:00N 55°00' W 001°30'0 0.0 1019.1 9.0
2015-Dec-07 11:00N 55°00' W 001°30'0 0.0 1020.0 8.0
2015-Dec-07 10:00N 55°00' W 001°30'3 3.4 1020.2 8.0
2015-Dec-07 09:00N 55°00' W 001°24'1212.0 1020.2 8.0
2015-Dec-07 08:00N 54°54' W 001°06'1515.1 1020.9 9.0
2015-Dec-07 07:00N 54°48' W 000°42'3919.7 1021.7 9.5
2015-Dec-07 05:00N 54°24' E 000°12'2121.2 1022.4 9.3
2015-Dec-07 04:00N 54°12' E 000°42'1515.3 1023.2 9.0
2015-Dec-07 03:00N 54°06' E 001°06'1918.5 1023.3 9.0
2015-Dec-07 02:00N 53°54' E 001°30'2813.8 1023.4 9.3
2015-Dec-07 00:00N 53°42' E 002°12'3517.3 1022.9 9.3
2015-Dec-06 22:00N 53°18' E 002°54'1616.1 1022.2 9.8
2015-Dec-06 21:00N 53°06' E 003°12'1212.4 1021.5 10.5
2015-Dec-06 20:00N 53°00' E 003°30'3115.6 1020.5 10.5
2015-Dec-06 18:00N 52°42' E 004°12'1414.0 1017.5 11.8
2015-Dec-06 17:00N 52°30' E 004°24'7 7.3 1018.1 11.0
2015-Dec-06 16:00N 52°30' E 004°36'0 0.0 1018.6 10.5
2015-Dec-06 15:00N 52°30' E 004°36'0 0.0 1017.4 11.0
2015-Dec-06 12:00N 52°30' E 004°36'0 0.0 1015.5 11.5
2015-Dec-06 11:00N 52°30' E 004°36'0 0.0 1015.8 11.3
2015-Dec-06 10:00N 52°30' E 004°36'11 5.5 1015.2 11.0
2015-Dec-06 08:00N 52°30' E 004°18'3718.3 1013.9 10.5
2015-Dec-06 06:00N 52°30' E 003°18'1615.8 1011.2 12.3
2015-Dec-06 05:00N 52°36' E 002°54'1615.7 1010.1 12.3
2015-Dec-06 04:00N 52°42' E 002°30'8817.6 1009.3 11.8
2015-Dec-05 23:00N 53°42' E 000°42'2120.9 1002.2 11.5
2015-Dec-05 22:00N 54°00' E 000°24'1818.5 1001.7 11.5
2015-Dec-05 21:00N 54°12' E 000°00'1615.9 999.7 11.8
2015-Dec-05 20:00N 54°24' W 000°18'2322.8 998.4 12.5
2015-Dec-05 19:00N 54°42' W 000°42'1818.3 995.5 12.3
2015-Dec-05 18:00N 54°54' W 001°06'1212.0 995.2 12.0
2015-Dec-05 17:00N 55°00' W 001°24'3 3.4 995.3 13.0
2015-Dec-05 16:00N 55°00' W 001°30'0 0.0 994.4 12.8
2015-Dec-05 14:00N 55°00' W 001°30'0 0.0 994.5 12.8
2015-Dec-05 13:00N 55°00' W 001°30'0 0.0 996.2 13.0
2015-Dec-05 12:00N 55°00' W 001°30'0 0.0 996.8 12.8
2015-Dec-05 11:00N 55°00' W 001°30'0 0.0 997.2 12.8
2015-Dec-05 10:00N 55°00' W 001°30'0 0.0 998.1 12.8
2015-Dec-05 09:00N 55°00' W 001°30'1212.0 998.5 12.8
2015-Dec-05 08:00N 54°54' W 001°12'1818.3 1000.3 12.5
2015-Dec-05 07:00N 54°42' W 000°48'1615.9 1002.8 12.0
2015-Dec-05 06:00N 54°30' W 000°30'   1005.6 11.8
Track history (hours):
 
Tides and Currents Weather Stations Pressure Air Temp Water Temp Dewpoint Dewpoint Depression Visibility Wind Speed Wind Dir Waves Ship Positions

Princess of Norway (United Kingdom)

DFDS Ferries. Previous callsign LMDV.

Last reported at 2015-Dec-15 06:00 UTC. Time now 2017-Mar-30 22:51 UTC.
Position N 54°36' W 000°12'.
Warning: this ship's position is years out of date!

Barometer 1018.0 mb
Air temperature 8.8 ° C

Date/timePositionNaut miles runAvg speedWind from/ knotsBaromVisibWave heightAir tempDewpointWater temp
2015-Dec-15 06:00N 54°36' W 000°12'1818.4 1018.0 8.8
2015-Dec-15 05:00N 54°24' E 000°12'1515.2 1018.0 8.8
2015-Dec-15 04:00N 54°18' E 000°36'8316.5 1017.8 8.8
2015-Dec-14 23:00N 53°30' E 002°30'7515.0 1017.3 8.5
2015-Dec-14 18:00N 52°42' E 004°06'1616.2 1017.3 7.8
2015-Dec-14 17:00N 52°30' E 004°24'7 2.4 1017.3 7.0
2015-Dec-14 14:00N 52°30' E 004°36'0 0.0 1017.2 9.0
2015-Dec-14 10:00N 52°30' E 004°36'0 0.0 1018.9 7.8
2015-Dec-14 09:00N 52°30' E 004°36'4 3.7 1019.1 7.5
2015-Dec-14 08:00N 52°30' E 004°30'1918.9 1018.2 7.0
2015-Dec-14 07:00N 52°42' E 004°06'1918.8 1017.4 9.3
2015-Dec-14 06:00N 52°54' E 003°42'3818.8 1016.9 10.3
2015-Dec-14 04:00N 53°18' E 002°54'1918.7 1016.9 10.3
2015-Dec-14 03:00N 53°30' E 002°30'1918.6 1016.7 9.5
2015-Dec-14 02:00N 53°42' E 002°06'9716.2 1016.4 9.3
2015-Dec-13 20:00N 54°36' W 000°12'1818.4 1017.1 7.3
2015-Dec-13 19:00N 54°42' W 000°42'1818.3 1016.9 7.5
2015-Dec-13 18:00N 54°54' W 001°06'15 7.5 1016.8 7.0
2015-Dec-13 16:00N 55°00' W 001°30'0 0.0 1018.4 3.8
2015-Dec-13 15:00N 55°00' W 001°30'0 0.0 1018.7 3.8
2015-Dec-13 14:00N 55°00' W 001°30'0 0.0 1019.1 3.5
2015-Dec-13 13:00N 55°00' W 001°30'0 0.0 1019.6 3.3
2015-Dec-13 12:00N 55°00' W 001°30'0 0.0 1020.0 3.3
2015-Dec-13 11:00N 55°00' W 001°30'0 0.0 1020.3 2.8
2015-Dec-13 10:00N 55°00' W 001°30'3 3.4 1020.1 2.0
2015-Dec-13 09:00N 55°00' W 001°24'1515.0 1019.5 2.8
2015-Dec-13 08:00N 54°54' W 001°00'1212.0 1018.6 5.8
2015-Dec-13 07:00N 54°48' W 000°42'1818.3 1017.9 7.5
2015-Dec-13 06:00N 54°36' W 000°18'1515.2 1017.1 7.8
2015-Dec-13 05:00N 54°30' E 000°06'3316.6 1016.4 7.8
2015-Dec-13 03:00N 54°12' E 000°54'3718.5 1015.5 8.0
2015-Dec-13 01:00N 53°48' E 001°42'4916.5 1013.3 7.0
2015-Dec-12 22:00N 53°18' E 002°48'5914.8 1005.8 8.3
2015-Dec-12 18:00N 52°42' E 004°06'1918.9 1007.4 11.0
2015-Dec-12 17:00N 52°30' E 004°30'4 3.7 1011.8 9.8
2015-Dec-12 16:00N 52°30' E 004°36'0 0.0 1014.2 7.8
2015-Dec-12 15:00N 52°30' E 004°36'0 0.0 1015.5 7.3
2015-Dec-12 14:00N 52°30' E 004°36'0 0.0 1017.7 8.0
2015-Dec-12 12:00N 52°30' E 004°36'0 0.0 1020.2 9.0
2015-Dec-12 11:00N 52°30' E 004°36'0 0.0 1021.1 8.5
2015-Dec-12 10:00N 52°30' E 004°36'4 1.8 1021.6 8.5
2015-Dec-12 08:00N 52°30' E 004°30'1616.2 1021.5 8.5
2015-Dec-12 07:00N 52°42' E 004°12'1918.8 1020.9 8.3
2015-Dec-12 06:00N 52°54' E 003°48'1212.4 1020.4 8.5
2015-Dec-12 05:00N 53°00' E 003°30'1918.8 1019.9 8.3
2015-Dec-12 04:00N 53°12' E 003°06'1918.7 1019.6 8.0
2015-Dec-12 03:00N 53°24' E 002°42'1616.1 1019.1 8.0
2015-Dec-12 02:00N 53°36' E 002°24'5317.6 1018.5 8.0
2015-Dec-11 23:00N 53°54' E 001°00'1918.5 1017.4 7.8
2015-Dec-11 22:00N 54°06' E 000°36'1818.5 1015.7 7.5
2015-Dec-11 21:00N 54°18' E 000°12'2121.2 1015.5 7.3
2015-Dec-11 20:00N 54°30' W 000°18'1818.4 1014.4 7.3
2015-Dec-11 19:00N 54°42' W 000°42'1818.3 1013.3 7.3
2015-Dec-11 18:00N 54°54' W 001°06'1515.0 1011.8 7.8
2015-Dec-11 17:00N 55°00' W 001°30'0 0.0 1010.3 7.0
2015-Dec-11 15:00N 55°00' W 001°30'0 0.0 1010.5 6.8
2015-Dec-11 14:00N 55°00' W 001°30'0 0.0 1010.6 6.0
2015-Dec-11 12:00N 55°00' W 001°30'0 0.0 1009.9 6.5
2015-Dec-11 11:00N 55°00' W 001°30'0 0.0 1010.6 6.8
2015-Dec-11 10:00N 55°00' W 001°30'12 6.0 1011.7 5.0
2015-Dec-11 08:00N 54°54' W 001°12'1515.1 1011.4 5.8
2015-Dec-11 07:00N 54°48' W 000°48'1515.1 1011.7 6.0
2015-Dec-11 06:00N 54°42' W 000°24'1615.9 1012.0 6.3
2015-Dec-11 05:00N 54°30' W 000°06'3316.6 1012.4 6.5
2015-Dec-11 03:00N 54°12' E 000°42'1212.1 1012.2 7.8
2015-Dec-11 02:00N 54°06' E 001°00'5518.3 1011.7 8.5
2015-Dec-10 23:00N 53°36' E 002°18'6516.4 1016.5 8.0
2015-Dec-10 19:00N 52°54' E 003°42'4110.1 1018.7 10.5
2015-Dec-10 15:00N 52°30' E 004°36'0 0.0 1024.2 8.3
2015-Dec-10 14:00N 52°30' E 004°36'0 0.0 1024.7 8.3
2015-Dec-10 12:00N 52°30' E 004°36'4 1.2 1026.4 7.8
2015-Dec-10 09:00N 52°30' E 004°30'7017.4 1026.7 7.5
2015-Dec-10 05:00N 52°36' E 002°36'1919.2 1024.9 11.3
2015-Dec-10 04:00N 52°42' E 002°06'8517.0 1023.8 10.3
2015-Dec-09 23:00N 53°48' E 000°36'7117.7 1018.5 10.0
2015-Dec-09 19:00N 54°42' W 000°42'3316.5 1014.4 11.3
2015-Dec-09 17:00N 55°00' W 001°30'0 0.0 1015.4 11.3
2015-Dec-09 15:00N 55°00' W 001°30'0 0.0 1016.5 12.3
2015-Dec-09 14:00N 55°00' W 001°30'0 0.0 1017.8 11.8
2015-Dec-09 13:00N 55°00' W 001°30'0 0.0 1019.6 11.5
2015-Dec-09 12:00N 55°00' W 001°30'0 0.0 1020.0 11.3
2015-Dec-09 10:00N 55°00' W 001°30'18 9.1 1021.5 6.8
2015-Dec-09 08:00N 54°54' W 001°00'1818.3 1022.8 7.3
2015-Dec-09 07:00N 54°42' W 000°36'1818.4 1024.7 7.0
2015-Dec-09 06:00N 54°36' W 000°06'1818.4 1024.4 7.0
2015-Dec-09 05:00N 54°24' E 000°18'1515.2 1025.2 7.0
2015-Dec-09 04:00N 54°18' E 000°42'1818.5 1024.6 7.8
2015-Dec-09 03:00N 54°06' E 001°06'1212.2 1025.0 8.3
2015-Dec-09 02:00N 54°00' E 001°24'8016.0 1024.1 8.3
2015-Dec-08 21:00N 53°12' E 003°12'1918.8 1019.5 11.0
2015-Dec-08 20:00N 53°00' E 003°36'1616.2 1019.7 11.8
2015-Dec-08 19:00N 52°48' E 003°54'1212.4 1021.4 11.5
2015-Dec-08 18:00N 52°42' E 004°12'1616.2 1021.9 11.0
2015-Dec-08 17:00N 52°30' E 004°30'4 3.7 1022.5 10.0
2015-Dec-08 16:00N 52°30' E 004°36'0 0.0 1022.9 10.3
2015-Dec-08 15:00N 52°30' E 004°36'0 0.0 1022.6 10.3
2015-Dec-08 12:00N 52°30' E 004°36'0 0.0 1023.0 11.3
2015-Dec-08 11:00N 52°30' E 004°36'0 0.0 1023.7 11.0
2015-Dec-08 10:00N 52°30' E 004°36'0 0.0 1024.1 10.0
2015-Dec-08 09:00N 52°30' E 004°36'1212.5 1024.2 9.5
2015-Dec-08 08:00N 52°36' E 004°18'1616.2 1021.6 9.8
2015-Dec-08 07:00N 52°48' E 004°00'1918.8 1020.6 10.8
2015-Dec-08 06:00N 53°00' E 003°36'1615.6 1020.2 11.3
2015-Dec-08 05:00N 53°06' E 003°12'1616.1 1018.6 11.8
2015-Dec-08 04:00N 53°18' E 002°54'1918.7 1019.4 11.5
2015-Dec-08 03:00N 53°30' E 002°30'1918.6 1019.0 11.3
2015-Dec-08 02:00N 53°42' E 002°06'4916.2 1018.3 11.0
2015-Dec-07 23:00N 54°06' E 000°54'3015.2 1017.8 10.5
2015-Dec-07 21:00N 54°24' E 000°12'1818.4 1016.8 10.8
2015-Dec-07 20:00N 54°36' W 000°12'1515.1 1017.5 10.8
2015-Dec-07 19:00N 54°42' W 000°36'1818.3 1015.9 11.3
2015-Dec-07 18:00N 54°54' W 001°00'1515.0 1015.6 12.3
2015-Dec-07 17:00N 55°00' W 001°24'3 0.9 1016.3 12.3
2015-Dec-07 13:00N 55°00' W 001°30'0 0.0 1018.7 10.5
2015-Dec-07 12:00N 55°00' W 001°30'0 0.0 1019.1 9.0
2015-Dec-07 11:00N 55°00' W 001°30'0 0.0 1020.0 8.0
2015-Dec-07 10:00N 55°00' W 001°30'3 3.4 1020.2 8.0
2015-Dec-07 09:00N 55°00' W 001°24'1212.0 1020.2 8.0
2015-Dec-07 08:00N 54°54' W 001°06'1515.1 1020.9 9.0
2015-Dec-07 07:00N 54°48' W 000°42'3919.7 1021.7 9.5
2015-Dec-07 05:00N 54°24' E 000°12'2121.2 1022.4 9.3
2015-Dec-07 04:00N 54°12' E 000°42'1515.3 1023.2 9.0
2015-Dec-07 03:00N 54°06' E 001°06'1918.5 1023.3 9.0
2015-Dec-07 02:00N 53°54' E 001°30'2813.8 1023.4 9.3
2015-Dec-07 00:00N 53°42' E 002°12'3517.3 1022.9 9.3
2015-Dec-06 22:00N 53°18' E 002°54'1616.1 1022.2 9.8
2015-Dec-06 21:00N 53°06' E 003°12'1212.4 1021.5 10.5
2015-Dec-06 20:00N 53°00' E 003°30'3115.6 1020.5 10.5
2015-Dec-06 18:00N 52°42' E 004°12'1414.0 1017.5 11.8
2015-Dec-06 17:00N 52°30' E 004°24'7 7.3 1018.1 11.0
2015-Dec-06 16:00N 52°30' E 004°36'0 0.0 1018.6 10.5
2015-Dec-06 15:00N 52°30' E 004°36'0 0.0 1017.4 11.0
2015-Dec-06 12:00N 52°30' E 004°36'0 0.0 1015.5 11.5
2015-Dec-06 11:00N 52°30' E 004°36'0 0.0 1015.8 11.3
2015-Dec-06 10:00N 52°30' E 004°36'11 5.5 1015.2 11.0
2015-Dec-06 08:00N 52°30' E 004°18'3718.3 1013.9 10.5
2015-Dec-06 06:00N 52°30' E 003°18'1615.8 1011.2 12.3
2015-Dec-06 05:00N 52°36' E 002°54'1615.7 1010.1 12.3
2015-Dec-06 04:00N 52°42' E 002°30'8817.6 1009.3 11.8
2015-Dec-05 23:00N 53°42' E 000°42'2120.9 1002.2 11.5
2015-Dec-05 22:00N 54°00' E 000°24'1818.5 1001.7 11.5
2015-Dec-05 21:00N 54°12' E 000°00'1615.9 999.7 11.8
2015-Dec-05 20:00N 54°24' W 000°18'2322.8 998.4 12.5
2015-Dec-05 19:00N 54°42' W 000°42'1818.3 995.5 12.3
2015-Dec-05 18:00N 54°54' W 001°06'1212.0 995.2 12.0
2015-Dec-05 17:00N 55°00' W 001°24'3 3.4 995.3 13.0
2015-Dec-05 16:00N 55°00' W 001°30'0 0.0 994.4 12.8
2015-Dec-05 14:00N 55°00' W 001°30'0 0.0 994.5 12.8
2015-Dec-05 13:00N 55°00' W 001°30'0 0.0 996.2 13.0
2015-Dec-05 12:00N 55°00' W 001°30'0 0.0 996.8 12.8
2015-Dec-05 11:00N 55°00' W 001°30'0 0.0 997.2 12.8
2015-Dec-05 10:00N 55°00' W 001°30'0 0.0 998.1 12.8
2015-Dec-05 09:00N 55°00' W 001°30'1212.0 998.5 12.8
2015-Dec-05 08:00N 54°54' W 001°12'1818.3 1000.3 12.5
2015-Dec-05 07:00N 54°42' W 000°48'1615.9 1002.8 12.0
2015-Dec-05 06:00N 54°30' W 000°30'   1005.6 11.8

Dump ship's entire track history